KELM

Elmira/Corning Regional Airport

Airport
ICAO code
KELM
IATA Code
ELM
Summary
ICAO Region
NAM
ICAO Territory
Location

Big Flats, New York

Serving
Elmira/Corning
Elevation
954 ft
Coordinates
42° 9' 46" N , 76° 53' 45" W
KCC
Airport WX
Cumulonimbus
Metar
KELM 222233Z 00000KT 10SM SCT025 BKN080 OVC090 22/19 A3000 RMK AO2 LTG DSNT NW RAE00 P0000 T02220189

Elmira/Corning Regional Airport is a public-use airport located 7 nm northwest of the city of Elmira and 8 nm east of the city of Corning in Chemung County, New York, USA.

Airport map

Aerial View

SKYbrary Partners:

Safety knowledge contributed by: